首页
METAR-TAF:

METAR-TAF

机场 :

肯尼思·卡翁达国际机场

路沙卡, 赞比亚

纬度: 15-19-51S, 经度: 028-27-09E, 海拔: 1152米

当前天气观测

该预报发布于1小时和18分钟前的10:00 UTC
风速9节,风向西转西北
温度 27°C
湿度 58%
气压 1017 hPa
能见度10公里或以上
多云层高于4000英尺, 塔状积云.

METAR: FLKK 111000Z 29009KT 9999 BKN040TCU 27/18 Q1017

时间: 13:18 (11:18 UTC)

预报

该预报发布于25小时和18分钟前的10:00 UTC
预报有效从10日的 12点(UTC)到 11日的 18点(UTC)
风速10节,风向北转西北
能见度10公里或以上
少量云层高于3500英尺, 积雨云.
多云层高于4000英尺
几率 40% :
短暂存在
从 10日的 12点(UTC)到 10日的 16点(UTC)
能見度: 8000
雷暴, 雨
成为
从 10日的 20点(UTC)到 11日的 00点(UTC)
风速5节,风向西北
能见度10公里或以上
少量云 , 积雨云.
多云层高于8000英尺
几率 30% :
短暂存在
从 11日的 03点(UTC)到 11日的 05点(UTC)
能見度: 9000
小雨

TAF: FLKK 101000Z 1012/1118 34010KT 9999 FEW035CB BKN040 PROB40 TEMPO 1012/1016 8000 TSRA BECMG 1020/1100 31005KT 9999 FEW///CB BKN080 PROB30 TEMPO 1103/1105 9000 -RA

超过4000个机场的气象观测和天气预报(METAR&TAF报告)。

可查询的气象台以黄色和红色小点在地图上表示。

将鼠标移到小点上方,可查看气象台名称。

然后点击查看天气观测和预报。

如需切换地图:点击带黑十字的绿色按钮放大地图;点击带横线的绿色按钮缩小地图;或者点击绿色箭头查看邻近地区的地图。


METAR-TAF: